createdAt,value
2022-12-25T00:06:46.371Z,5.6
2022-12-25T00:16:47.179Z,5.6
2022-12-25T00:26:47.635Z,5.7
2022-12-25T00:36:48.271Z,5.8
2022-12-25T00:46:48.932Z,5.8
2022-12-25T00:56:49.799Z,5.9
2022-12-25T01:06:50.691Z,5.9
2022-12-25T01:16:51.243Z,6
2022-12-25T01:26:51.549Z,6
2022-12-25T01:36:51.951Z,6.1
2022-12-25T01:46:52.533Z,6.3
2022-12-25T01:56:52.947Z,6.5
2022-12-25T02:06:53.637Z,6.6
2022-12-25T02:16:57.187Z,6.7
2022-12-25T02:26:55.516Z,6.8
2022-12-25T02:36:56.036Z,7
2022-12-25T02:46:56.458Z,7.1
2022-12-25T02:56:57.597Z,7.2
2022-12-25T03:06:57.966Z,7.4
2022-12-25T03:16:58.146Z,7.6
2022-12-25T03:26:58.866Z,8.1
2022-12-25T04:07:01.615Z,8.7
2022-12-25T04:17:01.749Z,8.7
2022-12-25T04:47:07.547Z,8.8
2022-12-25T04:57:04.659Z,8.8
2022-12-25T05:07:05.601Z,8.7
2022-12-25T05:17:06.472Z,8.5
2022-12-25T05:27:07.241Z,8.2
2022-12-25T05:37:07.803Z,8
2022-12-25T06:17:10.435Z,7.5
2022-12-25T06:27:11.349Z,7.5
2022-12-25T06:37:11.585Z,7.4
2022-12-25T06:47:12.607Z,7.3
2022-12-25T06:57:12.931Z,7.3
2022-12-25T07:07:13.563Z,7.3
2022-12-25T07:17:14.381Z,7.2
2022-12-25T07:27:15.350Z,7.2
2022-12-25T07:37:16.221Z,7.2
2022-12-25T07:47:16.650Z,7.2
2022-12-25T07:57:17.116Z,7.2
2022-12-25T08:07:17.557Z,7.2
2022-12-25T08:17:18.380Z,7.2
2022-12-25T08:27:18.676Z,7.2
2022-12-25T08:37:19.711Z,7.2
2022-12-25T08:47:20.813Z,7.3
2022-12-25T08:57:21.047Z,7.3
2022-12-25T09:07:21.678Z,7.2
2022-12-25T09:17:22.067Z,7.3
2022-12-25T09:27:22.476Z,7.4
2022-12-25T09:37:22.844Z,7.5
2022-12-25T09:47:23.512Z,7.5
2022-12-25T09:57:24.281Z,7.6
2022-12-25T10:07:24.565Z,7.8
2022-12-25T10:17:24.689Z,7.9
2022-12-25T10:27:25.269Z,7.9
2022-12-25T10:37:26.072Z,8
2022-12-25T10:47:27.106Z,8.1
2022-12-25T10:57:28.047Z,8.2
2022-12-25T11:07:28.843Z,8.2
2022-12-25T11:17:29.410Z,8.3
2022-12-25T11:37:30.382Z,8.5
2022-12-25T11:47:30.665Z,8.6
2022-12-25T11:57:31.383Z,8.6
2022-12-25T12:07:32.273Z,8.7
2022-12-25T12:17:32.607Z,8.7
2022-12-25T12:27:32.922Z,8.8
2022-12-25T12:37:33.416Z,8.8
2022-12-25T12:47:33.920Z,8.8
2022-12-25T12:57:34.818Z,8.9
2022-12-25T13:07:35.212Z,8.9
2022-12-25T13:17:35.560Z,8.9
2022-12-25T13:27:36.504Z,8.9
2022-12-25T13:37:37.371Z,8.9
2022-12-25T13:47:37.848Z,8.9
2022-12-25T13:57:38.125Z,8.9
2022-12-25T14:07:38.651Z,8.9
2022-12-25T14:17:39.230Z,8.9
2022-12-25T14:27:39.734Z,8.9
2022-12-25T14:37:40.122Z,8.9
2022-12-25T14:47:40.581Z,8.9
2022-12-25T14:57:41.012Z,8.9
2022-12-25T15:17:42.889Z,8.9
2022-12-25T15:37:44.653Z,8.8
2022-12-25T15:57:45.770Z,8.8
2022-12-25T16:07:46.052Z,8.8
2022-12-25T16:17:46.714Z,8.8
2022-12-25T16:27:47.018Z,8.9
2022-12-25T16:37:47.762Z,8.9
2022-12-25T16:47:48.871Z,8.9
2022-12-25T16:57:49.911Z,8.9
2022-12-25T17:07:50.543Z,9
2022-12-25T17:17:51.164Z,9
2022-12-25T17:27:52.219Z,9
2022-12-25T17:37:52.587Z,9
2022-12-25T17:47:53.106Z,9
2022-12-25T17:57:53.522Z,9
2022-12-25T18:17:54.787Z,9
2022-12-25T18:27:55.413Z,9
2022-12-25T18:37:55.718Z,9.1
2022-12-25T18:47:56.150Z,9.6
2022-12-25T18:57:56.721Z,9.8
2022-12-25T19:17:57.557Z,9.9
2022-12-25T19:27:58.083Z,10.1
2022-12-25T19:37:58.700Z,10.3
2022-12-25T19:47:59.208Z,10.5
2022-12-25T19:57:59.798Z,10.5
2022-12-25T20:08:00.288Z,10.5
2022-12-25T20:18:00.826Z,10.6
2022-12-25T20:28:01.319Z,10.6
2022-12-25T20:38:02.154Z,10.6
2022-12-25T20:48:02.689Z,10.6
2022-12-25T20:58:03.488Z,10.6
2022-12-25T21:08:04.026Z,10.6
2022-12-25T21:18:04.608Z,10.7
2022-12-25T21:28:05.419Z,10.7
2022-12-25T21:38:05.799Z,10.7
2022-12-25T21:48:06.656Z,10.7
2022-12-25T21:58:07.207Z,10.7
2022-12-25T22:08:07.408Z,10.7
2022-12-25T22:18:08.202Z,10.7
2022-12-25T22:28:08.634Z,10.7
2022-12-25T22:38:09.299Z,10.6
2022-12-25T22:48:10.333Z,10.6
2022-12-25T22:58:11.307Z,10.6
2022-12-25T23:08:12.181Z,10.6
2022-12-25T23:28:13.241Z,10.6
2022-12-25T23:38:13.537Z,10.6
2022-12-25T23:48:14.298Z,10.5
2022-12-25T23:58:14.584Z,10.5
